createdAt,value
2022-10-05T00:00:14.588Z,8.98
2022-10-05T00:01:14.574Z,9.01
2022-10-05T00:02:14.664Z,9.03
2022-10-05T00:03:14.571Z,9.06
2022-10-05T00:04:14.730Z,9.12
2022-10-05T00:05:14.602Z,9.12
2022-10-05T00:06:14.521Z,9.06
2022-10-05T00:07:14.570Z,9.04
2022-10-05T00:08:14.500Z,9.12
2022-10-05T00:09:14.545Z,9.10
2022-10-05T00:10:14.492Z,9.10
2022-10-05T00:11:14.467Z,9.12
2022-10-05T00:12:14.457Z,9.04
2022-10-05T00:13:14.440Z,9.06
2022-10-05T00:14:14.439Z,9.19
2022-10-05T00:15:14.427Z,9.13
2022-10-05T00:16:14.435Z,9.10
2022-10-05T00:17:14.397Z,9.12
2022-10-05T00:18:14.403Z,9.13
2022-10-05T00:19:14.374Z,9.12
2022-10-05T00:20:14.366Z,9.06
2022-10-05T00:21:14.361Z,9.19
2022-10-05T00:22:14.345Z,9.30
2022-10-05T00:23:14.357Z,9.17
2022-10-05T00:24:14.333Z,9.08
2022-10-05T00:25:14.310Z,9.12
2022-10-05T00:26:14.308Z,9.10
2022-10-05T00:27:14.346Z,9.04
2022-10-05T00:28:14.349Z,9.17
2022-10-05T00:29:14.270Z,9.13
2022-10-05T00:30:14.267Z,9.22
2022-10-05T00:31:14.294Z,9.20
2022-10-05T00:32:14.233Z,9.13
2022-10-05T00:33:14.228Z,9.15
2022-10-05T00:34:14.208Z,9.15
2022-10-05T00:35:14.203Z,9.16
2022-10-05T00:36:14.191Z,9.03
2022-10-05T00:37:14.193Z,9.01
2022-10-05T00:38:14.165Z,9.04
2022-10-05T00:39:14.311Z,9.06
2022-10-05T00:40:14.146Z,9.01
2022-10-05T00:41:14.134Z,9.00
2022-10-05T00:42:14.133Z,9.00
2022-10-05T00:43:14.112Z,8.93
2022-10-05T00:44:14.100Z,9.04
2022-10-05T00:45:14.149Z,9.03
2022-10-05T00:46:14.152Z,9.06
2022-10-05T00:47:14.068Z,9.00
2022-10-05T00:48:14.059Z,8.97
2022-10-05T00:49:14.055Z,9.03
2022-10-05T00:50:14.036Z,9.03
2022-10-05T00:51:14.109Z,9.04
2022-10-05T00:52:14.047Z,9.01
2022-10-05T00:53:14.002Z,9.01
2022-10-05T00:54:18.189Z,8.93
2022-10-05T00:55:14.005Z,9.06
2022-10-05T00:56:13.970Z,8.89
2022-10-05T00:57:14.003Z,9.06
2022-10-05T00:58:13.945Z,8.97
2022-10-05T00:59:13.939Z,9.04
2022-10-05T01:00:13.924Z,9.03
2022-10-05T01:01:14.024Z,9.01
2022-10-05T01:02:14.029Z,8.98
2022-10-05T01:03:13.969Z,8.96
2022-10-05T01:04:13.884Z,9.08
2022-10-05T01:05:13.868Z,9.03
2022-10-05T01:06:13.859Z,9.01
2022-10-05T01:07:13.848Z,9.15
2022-10-05T01:08:13.835Z,8.93
2022-10-05T01:09:13.908Z,9.01
2022-10-05T01:10:13.816Z,9.03
2022-10-05T01:11:13.829Z,9.12
2022-10-05T01:12:13.792Z,9.15
2022-10-05T01:13:13.784Z,9.16
2022-10-05T01:14:13.773Z,9.06
2022-10-05T01:15:13.790Z,9.10
2022-10-05T01:16:13.836Z,9.13
2022-10-05T01:17:13.850Z,9.23
2022-10-05T01:18:13.731Z,9.17
2022-10-05T01:19:13.720Z,9.12
2022-10-05T01:20:13.713Z,9.23
2022-10-05T01:21:13.714Z,9.15
2022-10-05T01:22:13.683Z,9.13
2022-10-05T01:23:13.685Z,9.20
2022-10-05T01:24:13.664Z,9.30
2022-10-05T01:25:13.663Z,9.27
2022-10-05T01:26:13.646Z,9.23
2022-10-05T01:27:13.701Z,9.19
2022-10-05T01:28:13.699Z,9.22
2022-10-05T01:29:13.610Z,9.19
2022-10-05T01:30:13.603Z,9.10
2022-10-05T01:31:13.659Z,9.22
2022-10-05T01:32:13.597Z,9.13
2022-10-05T01:33:13.637Z,9.00
2022-10-05T01:34:13.552Z,9.17
2022-10-05T01:35:13.542Z,9.08
2022-10-05T01:36:13.532Z,9.16
2022-10-05T01:37:13.520Z,9.13
2022-10-05T01:38:13.525Z,9.08
2022-10-05T01:39:13.570Z,9.12
2022-10-05T01:40:13.489Z,9.13
2022-10-05T01:41:13.485Z,9.13
2022-10-05T01:42:13.464Z,9.24
2022-10-05T01:43:13.519Z,9.15
2022-10-05T01:44:13.464Z,9.13
2022-10-05T01:45:13.501Z,9.20
2022-10-05T01:46:13.465Z,9.00
2022-10-05T01:47:13.414Z,9.00
2022-10-05T01:48:13.398Z,9.03
2022-10-05T01:49:13.388Z,9.15
2022-10-05T01:50:13.386Z,9.19
2022-10-05T01:51:13.398Z,9.17
2022-10-05T01:52:13.365Z,9.16
2022-10-05T01:53:13.343Z,9.23
2022-10-05T01:54:13.332Z,9.13
2022-10-05T01:55:13.322Z,9.13
2022-10-05T01:56:13.313Z,9.17
2022-10-05T01:57:13.363Z,9.13
2022-10-05T01:58:13.296Z,9.16
2022-10-05T01:59:13.320Z,9.01
2022-10-05T02:00:13.266Z,8.97
2022-10-05T02:01:13.371Z,9.00
2022-10-05T02:02:13.374Z,9.08
2022-10-05T02:03:13.321Z,9.12
2022-10-05T02:04:21.188Z,9.16
2022-10-05T02:05:14.216Z,9.16
2022-10-05T02:06:13.274Z,9.12
2022-10-05T02:07:13.290Z,9.06
2022-10-05T02:08:13.178Z,8.93
2022-10-05T02:09:13.197Z,8.91
2022-10-05T02:10:13.154Z,8.89
2022-10-05T02:11:13.146Z,8.88
2022-10-05T02:12:13.135Z,8.86
2022-10-05T02:13:13.137Z,8.83
2022-10-05T02:14:13.181Z,8.88
2022-10-05T02:15:13.159Z,8.80
2022-10-05T02:16:13.208Z,9.01
2022-10-05T02:17:13.106Z,8.97
2022-10-05T02:18:13.075Z,8.97
2022-10-05T02:19:13.062Z,8.98
2022-10-05T02:20:13.113Z,8.96
2022-10-05T02:21:13.037Z,8.97
2022-10-05T02:22:13.024Z,8.96
2022-10-05T02:23:13.035Z,9.01
2022-10-05T02:24:13.007Z,8.89
2022-10-05T02:25:13.032Z,9.03
2022-10-05T02:26:13.071Z,9.08
2022-10-05T02:27:12.993Z,9.08
2022-10-05T02:28:13.031Z,9.19
2022-10-05T02:29:12.981Z,9.26
2022-10-05T02:30:16.633Z,9.16
2022-10-05T02:31:13.034Z,9.15
2022-10-05T02:32:12.922Z,9.08
2022-10-05T02:33:12.905Z,9.17
2022-10-05T02:34:12.912Z,9.04
2022-10-05T02:35:12.886Z,9.06
2022-10-05T02:36:12.875Z,9.04
2022-10-05T02:37:12.864Z,9.04
2022-10-05T02:38:12.860Z,9.16
2022-10-05T02:39:12.844Z,9.06
2022-10-05T02:40:12.840Z,9.03
2022-10-05T02:41:12.820Z,8.98
2022-10-05T02:42:12.811Z,9.10
2022-10-05T02:43:12.801Z,9.01
2022-10-05T02:44:12.813Z,9.10
2022-10-05T02:45:12.777Z,9.12
2022-10-05T02:46:12.826Z,8.98
2022-10-05T02:47:12.778Z,9.06
2022-10-05T02:48:12.739Z,9.03
2022-10-05T02:49:12.731Z,9.03
2022-10-05T02:50:12.789Z,9.08
2022-10-05T02:51:12.718Z,9.00
2022-10-05T02:52:12.700Z,9.01
2022-10-05T02:53:12.690Z,8.91
2022-10-05T02:54:12.693Z,8.97
2022-10-05T02:55:12.662Z,8.91
2022-10-05T02:56:12.783Z,9.00
2022-10-05T02:57:12.646Z,8.85
2022-10-05T02:58:12.633Z,8.86
2022-10-05T02:59:12.624Z,8.93
2022-10-05T03:00:12.608Z,9.04
2022-10-05T03:01:12.732Z,9.00
2022-10-05T03:02:12.711Z,9.08
2022-10-05T03:03:12.605Z,9.00
2022-10-05T03:04:12.616Z,8.91
2022-10-05T03:05:12.569Z,8.82
2022-10-05T03:06:12.558Z,8.82
2022-10-05T03:07:12.534Z,8.93
2022-10-05T03:08:12.585Z,8.80
2022-10-05T03:09:12.511Z,8.86
2022-10-05T03:10:12.502Z,8.93
2022-10-05T03:11:12.497Z,8.83
2022-10-05T03:12:12.494Z,8.91
2022-10-05T03:13:12.470Z,9.06
2022-10-05T03:14:12.534Z,8.96
2022-10-05T03:15:12.442Z,8.97
2022-10-05T03:16:12.469Z,8.94
2022-10-05T03:17:12.433Z,8.96
2022-10-05T03:18:12.414Z,9.10
2022-10-05T03:19:12.425Z,9.08
2022-10-05T03:20:12.400Z,8.94
2022-10-05T03:21:12.380Z,8.83
2022-10-05T03:22:12.383Z,8.93
2022-10-05T03:23:12.361Z,9.01
2022-10-05T03:24:12.346Z,8.86
2022-10-05T03:25:12.339Z,9.01
2022-10-05T03:26:12.401Z,9.04
2022-10-05T03:27:12.367Z,9.08
2022-10-05T03:28:12.388Z,8.93
2022-10-05T03:29:12.297Z,8.96
2022-10-05T03:30:12.279Z,8.85
2022-10-05T03:31:12.318Z,8.80
2022-10-05T03:32:12.317Z,8.85
2022-10-05T03:33:12.249Z,8.78
2022-10-05T03:34:12.250Z,8.68
2022-10-05T03:35:12.246Z,8.70
2022-10-05T03:36:12.215Z,8.68
2022-10-05T03:37:12.202Z,8.76
2022-10-05T03:38:12.302Z,8.76
2022-10-05T03:39:12.185Z,8.73
2022-10-05T03:40:12.185Z,8.71
2022-10-05T03:41:12.226Z,8.85
2022-10-05T03:42:12.152Z,8.79
2022-10-05T03:43:12.139Z,8.76
2022-10-05T03:44:12.184Z,8.83
2022-10-05T03:45:12.119Z,8.82
2022-10-05T03:46:12.198Z,8.85
2022-10-05T03:47:12.095Z,8.82
2022-10-05T03:48:12.086Z,8.78
2022-10-05T03:49:12.168Z,8.85
2022-10-05T03:50:12.064Z,8.82
2022-10-05T03:51:12.093Z,8.76
2022-10-05T03:52:12.052Z,8.79
2022-10-05T03:53:12.029Z,8.89
2022-10-05T03:54:12.019Z,8.88
2022-10-05T03:55:12.056Z,8.85
2022-10-05T03:56:12.005Z,8.86
2022-10-05T03:57:11.990Z,8.88
2022-10-05T03:58:12.008Z,8.93
2022-10-05T03:59:11.960Z,8.97
2022-10-05T04:00:11.951Z,8.88
2022-10-05T04:01:12.033Z,8.86
2022-10-05T04:02:11.954Z,8.76
2022-10-05T04:03:11.934Z,8.79
2022-10-05T04:04:11.905Z,8.79
2022-10-05T04:05:11.922Z,8.86
2022-10-05T04:06:11.890Z,8.79
2022-10-05T04:07:12.149Z,8.70
2022-10-05T04:08:12.071Z,8.76
2022-10-05T04:09:11.863Z,8.78
2022-10-05T04:10:11.844Z,8.88
2022-10-05T04:11:11.831Z,8.83
2022-10-05T04:12:11.827Z,8.91
2022-10-05T04:13:11.813Z,8.96
2022-10-05T04:14:11.800Z,8.91
2022-10-05T04:15:16.457Z,9.01
2022-10-05T04:16:12.848Z,8.96
2022-10-05T04:17:11.770Z,9.00
2022-10-05T04:18:11.755Z,8.79
2022-10-05T04:19:11.797Z,9.00
2022-10-05T04:20:11.753Z,8.98
2022-10-05T04:21:11.722Z,8.88
2022-10-05T04:22:11.710Z,9.03
2022-10-05T04:23:11.728Z,8.97
2022-10-05T04:24:11.692Z,8.97
2022-10-05T04:25:11.723Z,8.85
2022-10-05T04:26:11.760Z,8.96
2022-10-05T04:27:11.660Z,9.06
2022-10-05T04:28:11.749Z,9.06
2022-10-05T04:29:11.634Z,9.00
2022-10-05T04:30:11.636Z,8.93
2022-10-05T04:31:11.703Z,9.00
2022-10-05T04:32:11.662Z,8.96
2022-10-05T04:33:11.811Z,8.97
2022-10-05T04:34:11.581Z,8.93
2022-10-05T04:35:11.586Z,8.93
2022-10-05T04:36:11.553Z,8.97
2022-10-05T04:37:11.545Z,8.96
2022-10-05T04:38:11.552Z,9.01
2022-10-05T04:39:11.546Z,8.94
2022-10-05T04:40:11.517Z,9.03
2022-10-05T04:41:11.514Z,8.97
2022-10-05T04:42:11.496Z,9.03
2022-10-05T04:43:11.482Z,8.98
2022-10-05T04:44:11.529Z,8.97
2022-10-05T04:45:11.468Z,9.03
2022-10-05T04:46:11.483Z,9.01
2022-10-05T04:47:11.486Z,9.10
2022-10-05T04:48:11.424Z,9.03
2022-10-05T04:49:11.442Z,9.04
2022-10-05T04:50:11.446Z,9.08
2022-10-05T04:51:11.407Z,9.16
2022-10-05T04:52:11.391Z,9.23
2022-10-05T04:53:11.374Z,9.23
2022-10-05T04:54:11.360Z,9.30
2022-10-05T04:55:11.444Z,9.32
2022-10-05T04:56:11.344Z,9.30
2022-10-05T04:57:11.339Z,9.26
2022-10-05T04:58:11.317Z,9.22
2022-10-05T04:59:11.307Z,9.34
2022-10-05T05:00:11.294Z,9.22
2022-10-05T05:01:11.347Z,9.34
2022-10-05T05:02:11.298Z,9.32
2022-10-05T05:03:11.374Z,9.24
2022-10-05T05:04:11.302Z,9.16
2022-10-05T05:05:11.271Z,9.22
2022-10-05T05:06:18.727Z,9.17
2022-10-05T05:07:12.221Z,9.19
2022-10-05T05:08:11.305Z,9.31
2022-10-05T05:09:11.212Z,9.20
2022-10-05T05:10:11.181Z,9.38
2022-10-05T05:11:15.128Z,9.22
2022-10-05T05:12:12.160Z,9.27
2022-10-05T05:13:11.154Z,9.19
2022-10-05T05:14:11.164Z,9.30
2022-10-05T05:15:11.138Z,9.27
2022-10-05T05:16:11.179Z,9.23
2022-10-05T05:17:13.329Z,9.34
2022-10-05T05:18:11.094Z,9.37
2022-10-05T05:19:11.086Z,9.32
2022-10-05T05:20:11.232Z,9.34
2022-10-05T05:21:11.068Z,9.30
2022-10-05T05:22:11.051Z,9.23
2022-10-05T05:23:11.049Z,9.30
2022-10-05T05:24:11.095Z,9.38
2022-10-05T05:25:11.025Z,9.38
2022-10-05T05:26:11.035Z,9.40
2022-10-05T05:27:11.053Z,9.34
2022-10-05T05:28:11.050Z,9.32
2022-10-05T05:29:10.978Z,9.34
2022-10-05T05:30:10.963Z,9.38
2022-10-05T05:31:10.991Z,9.32
2022-10-05T05:32:10.982Z,9.31
2022-10-05T05:33:10.929Z,9.24
2022-10-05T05:34:10.920Z,9.35
2022-10-05T05:35:10.915Z,9.37
2022-10-05T05:36:10.901Z,9.35
2022-10-05T05:37:10.901Z,9.27
2022-10-05T05:38:10.883Z,9.31
2022-10-05T05:39:10.868Z,9.27
2022-10-05T05:40:10.859Z,9.32
2022-10-05T05:41:10.845Z,9.32
2022-10-05T05:42:10.831Z,9.35
2022-10-05T05:43:10.860Z,9.27
2022-10-05T05:44:10.826Z,9.32
2022-10-05T05:45:10.802Z,9.35
2022-10-05T05:46:10.828Z,9.15
2022-10-05T05:47:11.187Z,9.16
2022-10-05T05:48:10.767Z,9.35
2022-10-05T05:49:10.772Z,9.34
2022-10-05T05:50:10.777Z,9.52
2022-10-05T05:51:10.737Z,9.50
2022-10-05T05:52:10.726Z,9.44
2022-10-05T05:53:10.717Z,9.44
2022-10-05T05:54:10.704Z,9.49
2022-10-05T05:55:10.700Z,9.59
2022-10-05T05:56:10.732Z,9.56
2022-10-05T05:57:10.671Z,9.48
2022-10-05T05:58:10.721Z,9.55
2022-10-05T05:59:10.737Z,9.55
2022-10-05T06:00:10.657Z,9.56
2022-10-05T06:01:25.048Z,9.58
2022-10-05T06:02:11.784Z,9.56
2022-10-05T06:03:10.775Z,9.52
2022-10-05T06:04:10.592Z,9.52
2022-10-05T06:05:10.581Z,9.40
2022-10-05T06:06:10.581Z,9.42
2022-10-05T06:07:10.559Z,9.44
2022-10-05T06:08:10.618Z,9.45
2022-10-05T06:09:10.540Z,9.60
2022-10-05T06:10:10.535Z,9.60
2022-10-05T06:11:10.621Z,9.48
2022-10-05T06:12:10.507Z,9.60
2022-10-05T06:13:10.493Z,9.38
2022-10-05T06:14:10.549Z,9.52
2022-10-05T06:15:10.527Z,9.52
2022-10-05T06:16:10.496Z,9.45
2022-10-05T06:17:10.460Z,9.52
2022-10-05T06:18:10.436Z,9.52
2022-10-05T06:19:10.426Z,9.50
2022-10-05T06:20:10.478Z,9.50
2022-10-05T06:21:10.404Z,9.59
2022-10-05T06:22:10.408Z,9.55
2022-10-05T06:23:10.386Z,9.70
2022-10-05T06:24:10.371Z,9.59
2022-10-05T06:25:10.366Z,9.60
2022-10-05T06:26:10.993Z,9.59
2022-10-05T06:27:10.341Z,9.59
2022-10-05T06:28:10.464Z,9.62
2022-10-05T06:29:10.322Z,9.60
2022-10-05T06:30:10.305Z,9.65
2022-10-05T06:31:10.404Z,9.59
2022-10-05T06:32:10.382Z,9.71
2022-10-05T06:33:10.274Z,9.63
2022-10-05T06:34:10.263Z,9.63
2022-10-05T06:35:10.257Z,9.62
2022-10-05T06:36:10.240Z,9.77
2022-10-05T06:37:10.231Z,9.81
2022-10-05T06:38:10.297Z,9.86
2022-10-05T06:39:10.218Z,9.83
2022-10-05T06:40:10.196Z,9.98
2022-10-05T06:41:10.208Z,10.09
2022-10-05T06:42:10.175Z,10.34
2022-10-05T06:43:10.165Z,10.36
2022-10-05T06:44:10.225Z,10.57
2022-10-05T06:45:10.145Z,10.68
2022-10-05T06:46:10.173Z,10.91
2022-10-05T06:47:10.159Z,10.88
2022-10-05T06:48:10.181Z,11.03
2022-10-05T06:49:10.162Z,11.28
2022-10-05T06:50:10.090Z,11.67
2022-10-05T06:51:10.078Z,12.21
2022-10-05T06:52:10.149Z,12.67
2022-10-05T06:53:10.056Z,12.96
2022-10-05T06:54:10.048Z,13.06
2022-10-05T06:55:14.020Z,13.32
2022-10-05T06:56:10.028Z,13.48
2022-10-05T06:57:10.070Z,13.61
2022-10-05T06:58:10.016Z,13.98
2022-10-05T06:59:09.992Z,14.35
2022-10-05T07:00:09.980Z,14.46
2022-10-05T07:01:10.007Z,14.59
2022-10-05T07:02:09.979Z,14.49
2022-10-05T07:03:10.019Z,14.29
2022-10-05T07:04:09.967Z,14.53
2022-10-05T07:05:09.938Z,14.54
2022-10-05T07:06:09.914Z,14.04
2022-10-05T07:07:09.910Z,13.96
2022-10-05T07:08:09.895Z,13.90
2022-10-05T07:09:09.958Z,14.09
2022-10-05T07:10:09.876Z,14.56
2022-10-05T07:11:09.861Z,14.82
2022-10-05T07:12:09.860Z,14.97
2022-10-05T07:13:09.838Z,15.03
2022-10-05T07:14:09.838Z,15.25
2022-10-05T07:15:09.872Z,15.53
2022-10-05T07:16:09.868Z,15.66
2022-10-05T07:17:09.812Z,15.93
2022-10-05T07:18:09.827Z,16.22
2022-10-05T07:19:09.800Z,16.52
2022-10-05T07:20:09.765Z,16.78
2022-10-05T07:21:09.755Z,16.90
2022-10-05T07:22:09.750Z,16.82
2022-10-05T07:23:09.733Z,16.48
2022-10-05T07:24:09.732Z,15.77
2022-10-05T07:25:09.746Z,16.04
2022-10-05T07:26:09.699Z,16.26
2022-10-05T07:27:09.893Z,16.45
2022-10-05T07:28:09.792Z,16.77
2022-10-05T07:29:09.683Z,16.59
2022-10-05T07:30:09.658Z,16.41
2022-10-05T07:31:09.750Z,16.37
2022-10-05T07:32:09.631Z,16.08
2022-10-05T07:33:09.631Z,15.76
2022-10-05T07:34:09.636Z,15.70
2022-10-05T07:35:09.623Z,16.06
2022-10-05T07:36:09.590Z,16.04
2022-10-05T07:37:09.591Z,15.95
2022-10-05T07:38:09.566Z,16.27
2022-10-05T07:39:09.572Z,16.55
2022-10-05T07:40:09.596Z,16.82
2022-10-05T07:41:09.536Z,16.59
2022-10-05T07:42:09.521Z,16.57
2022-10-05T07:43:09.515Z,16.48
2022-10-05T07:44:12.732Z,16.55
2022-10-05T07:45:09.511Z,16.52
2022-10-05T07:46:09.580Z,16.34
2022-10-05T07:47:09.483Z,16.60
2022-10-05T07:48:09.462Z,16.90
2022-10-05T07:49:09.451Z,17.06
2022-10-05T07:50:09.436Z,17.38
2022-10-05T07:51:09.461Z,17.63
2022-10-05T07:52:09.472Z,17.80
2022-10-05T07:53:09.410Z,17.74
2022-10-05T07:54:09.397Z,17.79
2022-10-05T07:55:09.403Z,17.95
2022-10-05T07:56:09.386Z,17.80
2022-10-05T07:57:09.360Z,17.80
2022-10-05T07:58:09.365Z,18.04
2022-10-05T07:59:09.344Z,18.47
2022-10-05T08:00:09.334Z,18.39
2022-10-05T08:01:09.316Z,18.10
2022-10-05T08:02:09.434Z,17.77
2022-10-05T08:03:09.348Z,17.99
2022-10-05T08:04:09.296Z,17.87
2022-10-05T08:05:09.325Z,17.94
2022-10-05T08:06:09.261Z,18.09
2022-10-05T08:07:09.283Z,17.98
2022-10-05T08:08:09.242Z,17.81
2022-10-05T08:09:09.274Z,17.94
2022-10-05T08:10:09.231Z,17.98
2022-10-05T08:11:09.263Z,18.07
2022-10-05T08:12:09.310Z,17.81
2022-10-05T08:13:09.187Z,18.10
2022-10-05T08:14:09.176Z,18.32
2022-10-05T08:15:09.173Z,18.38
2022-10-05T08:16:09.230Z,17.73
2022-10-05T08:17:09.148Z,17.76
2022-10-05T08:18:09.138Z,17.62
2022-10-05T08:19:09.122Z,17.36
2022-10-05T08:20:09.125Z,16.88
2022-10-05T08:21:09.109Z,16.73
2022-10-05T08:22:09.099Z,16.90
2022-10-05T08:23:09.103Z,17.10
2022-10-05T08:24:09.069Z,17.09
2022-10-05T08:25:09.056Z,16.95
2022-10-05T08:26:09.093Z,16.77
2022-10-05T08:27:09.029Z,16.69
2022-10-05T08:28:09.070Z,16.84
2022-10-05T08:29:13.500Z,17.09
2022-10-05T08:30:09.014Z,17.09
2022-10-05T08:31:09.071Z,17.07
2022-10-05T08:32:08.975Z,17.21
2022-10-05T08:33:08.965Z,17.42
2022-10-05T08:34:08.956Z,17.74
2022-10-05T08:35:08.981Z,18.13
2022-10-05T08:36:08.933Z,18.13
2022-10-05T08:37:08.925Z,17.98
2022-10-05T08:38:09.126Z,17.92
2022-10-05T08:39:08.923Z,17.92
2022-10-05T08:40:08.887Z,18.09
2022-10-05T08:41:08.898Z,17.95
2022-10-05T08:42:08.868Z,17.83
2022-10-05T08:43:08.864Z,17.71
2022-10-05T08:44:08.852Z,18.02
2022-10-05T08:45:08.835Z,18.10
2022-10-05T08:46:08.929Z,18.02
2022-10-05T08:47:08.828Z,18.31
2022-10-05T08:48:08.802Z,18.59
2022-10-05T08:49:08.789Z,18.66
2022-10-05T08:50:08.777Z,18.83
2022-10-05T08:51:08.766Z,18.62
2022-10-05T08:52:08.757Z,18.28
2022-10-05T08:53:08.979Z,18.28
2022-10-05T08:54:08.735Z,18.20
2022-10-05T08:55:08.777Z,17.98
2022-10-05T08:56:08.714Z,17.91
2022-10-05T08:57:08.698Z,18.11
2022-10-05T08:58:08.704Z,18.26
2022-10-05T08:59:08.766Z,18.46
2022-10-05T09:00:08.669Z,18.32
2022-10-05T09:01:08.703Z,18.26
2022-10-05T09:02:08.710Z,18.05
2022-10-05T09:03:08.636Z,18.38
2022-10-05T09:04:08.644Z,18.41
2022-10-05T09:05:08.673Z,18.29
2022-10-05T09:06:08.602Z,18.28
2022-10-05T09:07:08.617Z,18.34
2022-10-05T09:08:08.597Z,18.17
2022-10-05T09:09:08.581Z,18.26
2022-10-05T09:10:08.569Z,18.16
2022-10-05T09:11:08.595Z,18.25
2022-10-05T09:12:08.545Z,18.23
2022-10-05T09:13:08.537Z,18.46
2022-10-05T09:14:08.551Z,18.36
2022-10-05T09:15:24.960Z,18.41
2022-10-05T09:16:09.562Z,18.68
2022-10-05T09:17:08.485Z,18.74
2022-10-05T09:18:08.745Z,19.02
2022-10-05T09:19:08.465Z,19.21
2022-10-05T09:20:08.455Z,19.28
2022-10-05T09:21:08.442Z,19.16
2022-10-05T09:22:08.445Z,19.39
2022-10-05T09:23:08.416Z,19.35
2022-10-05T09:24:08.414Z,18.94
2022-10-05T09:25:08.400Z,18.94
2022-10-05T09:26:08.383Z,19.07
2022-10-05T09:27:08.407Z,19.49
2022-10-05T09:28:08.488Z,19.68
2022-10-05T09:29:08.369Z,19.85
2022-10-05T09:30:08.345Z,19.58
2022-10-05T09:31:08.405Z,19.21
2022-10-05T09:32:09.928Z,19.40
2022-10-05T09:33:08.310Z,19.55
2022-10-05T09:34:08.309Z,19.65
2022-10-05T09:35:08.302Z,19.71
2022-10-05T09:36:08.336Z,19.53
2022-10-05T09:37:08.266Z,19.70
2022-10-05T09:38:08.261Z,19.97
2022-10-05T09:39:08.244Z,19.82
2022-10-05T09:40:08.240Z,19.50
2022-10-05T09:41:08.236Z,19.38
2022-10-05T09:42:08.277Z,19.65
2022-10-05T09:43:08.252Z,19.23
2022-10-05T09:44:08.189Z,19.23
2022-10-05T09:45:08.197Z,19.09
2022-10-05T09:46:08.245Z,19.15
2022-10-05T09:47:08.157Z,19.45
2022-10-05T09:48:08.201Z,20.10
2022-10-05T09:49:08.152Z,20.35
2022-10-05T09:50:08.126Z,20.53
2022-10-05T09:51:08.125Z,20.41
2022-10-05T09:52:08.104Z,19.87
2022-10-05T09:53:08.108Z,19.60
2022-10-05T09:54:08.122Z,19.82
2022-10-05T09:55:08.072Z,19.67
2022-10-05T09:56:08.063Z,19.45
2022-10-05T09:57:08.052Z,19.64
2022-10-05T09:58:08.043Z,19.65
2022-10-05T09:59:08.077Z,19.58
2022-10-05T10:01:15.995Z,19.53
2022-10-05T10:02:09.075Z,19.53
2022-10-05T10:03:08.024Z,19.46
2022-10-05T10:04:08.029Z,19.75
2022-10-05T10:05:07.976Z,20.08
2022-10-05T10:06:08.054Z,20.22
2022-10-05T10:07:07.948Z,20.13
2022-10-05T10:08:07.935Z,20.34
2022-10-05T10:09:07.928Z,20.57
2022-10-05T10:10:07.927Z,20.37
2022-10-05T10:11:07.904Z,20.19
2022-10-05T10:12:07.895Z,19.79
2022-10-05T10:13:07.888Z,20.05
2022-10-05T10:14:07.869Z,19.87
2022-10-05T10:15:07.890Z,19.61
2022-10-05T10:16:07.922Z,19.68
2022-10-05T10:17:07.837Z,20.00
2022-10-05T10:18:07.836Z,20.38
2022-10-05T10:19:07.829Z,20.66
2022-10-05T10:20:07.815Z,20.48
2022-10-05T10:21:07.797Z,20.30
2022-10-05T10:22:07.793Z,20.40
2022-10-05T10:23:07.772Z,20.61
2022-10-05T10:24:07.817Z,20.58
2022-10-05T10:25:07.764Z,20.90
2022-10-05T10:26:07.743Z,20.69
2022-10-05T10:27:07.732Z,20.85
2022-10-05T10:28:07.777Z,20.56
2022-10-05T10:29:07.706Z,20.33
2022-10-05T10:30:07.854Z,20.58
2022-10-05T10:31:07.786Z,20.50
2022-10-05T10:32:07.677Z,20.33
2022-10-05T10:33:07.662Z,20.40
2022-10-05T10:34:07.651Z,20.42
2022-10-05T10:35:07.657Z,20.31
2022-10-05T10:36:07.647Z,20.54
2022-10-05T10:37:07.624Z,20.79
2022-10-05T10:38:07.646Z,21.06
2022-10-05T10:39:07.598Z,20.61
2022-10-05T10:40:07.715Z,20.90
2022-10-05T10:41:07.588Z,21.27
2022-10-05T10:42:07.622Z,21.51
2022-10-05T10:43:07.559Z,21.27
2022-10-05T10:44:07.551Z,21.38
2022-10-05T10:45:07.538Z,21.12
2022-10-05T10:46:07.662Z,21.01
2022-10-05T10:47:07.541Z,21.48
2022-10-05T10:48:07.563Z,21.58
2022-10-05T10:49:07.496Z,21.27
2022-10-05T10:50:07.483Z,21.33
2022-10-05T10:51:07.470Z,21.74
2022-10-05T10:52:07.479Z,21.31
2022-10-05T10:53:07.449Z,21.63
2022-10-05T10:54:07.492Z,21.91
2022-10-05T10:55:07.427Z,22.02
2022-10-05T10:56:07.416Z,22.02
2022-10-05T10:57:07.418Z,21.33
2022-10-05T10:58:08.653Z,21.58
2022-10-05T10:59:07.382Z,21.81
2022-10-05T11:00:07.501Z,21.89
2022-10-05T11:01:07.362Z,21.82
2022-10-05T11:02:07.423Z,21.51
2022-10-05T11:03:07.452Z,21.26
2022-10-05T11:04:07.344Z,21.26
2022-10-05T11:05:07.317Z,21.45
2022-10-05T11:06:07.361Z,21.42
2022-10-05T11:07:07.301Z,21.31
2022-10-05T11:08:07.303Z,21.26
2022-10-05T11:09:07.271Z,21.68
2022-10-05T11:10:07.268Z,21.43
2022-10-05T11:11:07.264Z,21.38
2022-10-05T11:12:07.244Z,21.31
2022-10-05T11:13:07.244Z,21.74
2022-10-05T11:14:07.223Z,21.89
2022-10-05T11:15:07.240Z,21.86
2022-10-05T11:17:07.192Z,21.66
2022-10-05T11:18:07.211Z,21.81
2022-10-05T11:19:07.202Z,21.85
2022-10-05T11:20:07.194Z,21.56
2022-10-05T11:21:07.144Z,21.52
2022-10-05T11:22:07.132Z,21.79
2022-10-05T11:23:07.121Z,21.82
2022-10-05T11:24:07.193Z,21.70
2022-10-05T11:25:07.105Z,21.94
2022-10-05T11:26:07.307Z,21.93
2022-10-05T11:27:07.084Z,21.91
2022-10-05T11:28:07.109Z,22.05
2022-10-05T11:29:07.104Z,22.08
2022-10-05T11:30:07.121Z,22.19
2022-10-05T11:31:07.084Z,22.49
2022-10-05T11:32:07.025Z,22.11
2022-10-05T11:33:07.014Z,22.12
2022-10-05T11:34:07.015Z,22.54
2022-10-05T11:35:07.031Z,22.41
2022-10-05T11:36:07.064Z,22.36
2022-10-05T11:37:06.967Z,22.41
2022-10-05T11:38:06.957Z,22.61
2022-10-05T11:39:06.948Z,22.26
2022-10-05T11:40:06.940Z,22.54
2022-10-05T11:41:06.938Z,22.21
2022-10-05T11:42:06.973Z,22.29
2022-10-05T11:43:06.904Z,22.26
2022-10-05T11:44:07.191Z,22.46
2022-10-05T11:45:06.885Z,22.41
2022-10-05T11:46:06.935Z,22.19
2022-10-05T11:47:06.876Z,22.09
2022-10-05T11:48:06.906Z,21.94
2022-10-05T11:49:06.842Z,21.71
2022-10-05T11:50:06.827Z,22.12
2022-10-05T11:51:06.946Z,22.44
2022-10-05T11:52:06.821Z,22.59
2022-10-05T11:53:06.794Z,22.85
2022-10-05T11:54:06.796Z,22.82
2022-10-05T11:55:11.673Z,22.39
2022-10-05T11:56:07.775Z,22.61
2022-10-05T11:57:06.754Z,22.59
2022-10-05T11:58:06.755Z,22.36
2022-10-05T11:59:06.734Z,22.04
2022-10-05T12:00:06.721Z,22.02
2022-10-05T12:01:06.755Z,22.46
2022-10-05T12:02:06.700Z,22.41
2022-10-05T12:03:06.854Z,22.29
2022-10-05T12:04:06.784Z,22.44
2022-10-05T12:05:06.673Z,22.51
2022-10-05T12:06:06.729Z,22.57
2022-10-05T12:07:06.694Z,22.61
2022-10-05T12:08:06.633Z,22.42
2022-10-05T12:09:06.625Z,22.51
2022-10-05T12:10:06.607Z,22.69
2022-10-05T12:11:06.605Z,22.31
2022-10-05T12:12:06.629Z,22.23
2022-10-05T12:13:06.579Z,22.09
2022-10-05T12:14:06.570Z,22.15
2022-10-05T12:15:06.560Z,22.21
2022-10-05T12:16:06.684Z,22.19
2022-10-05T12:17:06.535Z,22.21
2022-10-05T12:18:06.586Z,21.99
2022-10-05T12:19:06.514Z,21.83
2022-10-05T12:20:06.513Z,21.70
2022-10-05T12:21:06.496Z,21.89
2022-10-05T12:22:06.491Z,21.98
2022-10-05T12:23:06.491Z,22.19
2022-10-05T12:24:06.512Z,22.39
2022-10-05T12:25:06.503Z,22.15
2022-10-05T12:26:06.437Z,22.04
2022-10-05T12:27:06.429Z,22.11
2022-10-05T12:28:06.451Z,22.19
2022-10-05T12:29:06.407Z,22.14
2022-10-05T12:30:06.452Z,22.27
2022-10-05T12:31:06.445Z,22.15
2022-10-05T12:32:06.381Z,22.26
2022-10-05T12:33:06.360Z,22.60
2022-10-05T12:34:06.361Z,22.85
2022-10-05T12:35:06.336Z,23.07
2022-10-05T12:36:06.376Z,23.12
2022-10-05T12:37:06.326Z,23.03
2022-10-05T12:38:06.307Z,23.04
2022-10-05T12:39:06.348Z,23.14
2022-10-05T12:40:06.306Z,23.15
2022-10-05T12:41:06.283Z,23.15
2022-10-05T12:42:06.320Z,23.11
2022-10-05T12:43:06.261Z,23.12
2022-10-05T12:44:06.254Z,23.07
2022-10-05T12:45:06.241Z,22.93
2022-10-05T12:46:06.283Z,23.15
2022-10-05T12:47:06.221Z,22.78
2022-10-05T12:48:06.250Z,22.46
2022-10-05T12:49:06.185Z,22.05
2022-10-05T12:50:06.181Z,21.89
2022-10-05T12:51:06.180Z,22.15
2022-10-05T12:52:06.154Z,22.01
2022-10-05T12:53:06.144Z,22.29
2022-10-05T12:54:06.194Z,22.44
2022-10-05T12:55:06.162Z,22.56
2022-10-05T12:56:06.110Z,22.51
2022-10-05T12:57:06.115Z,22.82
2022-10-05T12:58:06.089Z,22.81
2022-10-05T12:59:06.076Z,22.69
2022-10-05T13:00:06.124Z,22.56
2022-10-05T13:01:06.120Z,22.48
2022-10-05T13:02:06.242Z,22.51
2022-10-05T13:03:06.045Z,22.72
2022-10-05T13:04:06.023Z,22.82
2022-10-05T13:05:06.014Z,23.03
2022-10-05T13:06:06.005Z,22.82
2022-10-05T13:07:05.991Z,22.96